17.29C
ясно
ясно
Дата и времяТемператураДавление, мм рт.ст.Влажность, %Осадки
МинимумМаксимум
21.05.2024 14:0017.16C18.32C75634ясно
21.05.2024 17:0017.71C18.28C75532ясно
21.05.2024 20:0014.44C14.44C75344ясно
21.05.2024 23:0010.6C10.6C75170ясно
22.05.2024 02:009.77C9.77C75073переменная облачность
22.05.2024 05:006.54C6.54C75089небольшой дождь
22.05.2024 08:004.39C4.39C75386небольшой дождь
22.05.2024 11:005.23C5.23C75564небольшой дождь
22.05.2024 14:004.91C4.91C75656пасмурно
22.05.2024 17:007.07C7.07C75838облачно с прояснениями
22.05.2024 20:005.15C5.15C75947переменная облачность
22.05.2024 23:000.97C0.97C75999снег
23.05.2024 02:001.99C1.99C75989небольшой снег
23.05.2024 05:000.3C0.3C75987облачно с прояснениями
23.05.2024 08:000.5C0.5C76073пасмурно
23.05.2024 11:003.07C3.07C76159небольшой дождь
23.05.2024 14:005.47C5.47C76139пасмурно
23.05.2024 17:004.72C4.72C76247небольшой снег
23.05.2024 20:003.19C3.19C76254пасмурно
23.05.2024 23:000.07C0.07C76260облачно с прояснениями
24.05.2024 02:00-0.72C-0.72C76165небольшая облачность
24.05.2024 05:000.9C0.9C76257небольшая облачность
24.05.2024 08:003.95C3.95C76241небольшая облачность
24.05.2024 11:004.92C4.92C76233переменная облачность
24.05.2024 14:005.62C5.62C76235пасмурно
24.05.2024 17:006.02C6.02C76228пасмурно
24.05.2024 20:003.48C3.48C76445облачно с прояснениями
24.05.2024 23:000.24C0.24C76555облачно с прояснениями
25.05.2024 02:00-0.78C-0.78C76556переменная облачность
25.05.2024 05:001.25C1.25C76551переменная облачность
25.05.2024 08:004.8C4.8C76534ясно
25.05.2024 11:006.73C6.73C76430ясно
25.05.2024 14:008.39C8.39C76228пасмурно
25.05.2024 17:008.8C8.8C76026пасмурно
25.05.2024 20:006.86C6.86C75937пасмурно
25.05.2024 23:005.06C5.06C75645пасмурно
26.05.2024 02:003.4C3.4C75370пасмурно
26.05.2024 05:001.89C1.89C75096небольшой снег
26.05.2024 08:002.04C2.04C74998снег
26.05.2024 11:002.51C2.51C74898небольшой снег
Дата и время наблюдения: 21.05.2024 12:22:56